Darstellungsparameter: Aktuell verwendete Einstellungen:
Skalierung der Graphiken ... ?
xyx+y,   Skalierungsfaktor:      Skalierung: Modus: x, Faktor: 1
Darstellungszeitraum ... ?
Vom - - bis: - -   Zeitraum: 17.03.2008 - 23.03.2008
Min/Max/Avg-Anzeige ... ?
Zeige MMA aktuell
Zeige MMA Monat
Zeige MMA alles
Zeige --A aktuell
Zeige --A Monat
Zeige --A alles
Keine MMA-Anzeige
MMA:
Keine MMA-Graphiken
MMA-Basis: 17.03.2008 - 23.03.2008
Quicknavigation für Darstellung... ?
Tage:      1T, 2T, 3T, 5T -1T -2T -3T -5T +1T +2T +3T +5T
Wochen: 1W, 2W, 3W -1W -2W -3W +1W +2W +3W
Monate: 1M, 3M, 6M -1M -3M -6M +1M +3M +6M
Jahre:    1J, 3J, 5J, 10J -1J -3J -5J -10J +1J +3J +5J +10J
Nutze für die Darstellung ... ?
Originaldaten oder Mittelwerte auf ...
Stundenbasis Tagesbasis Wochenbasis
Monatsbasis Jahresbasis      Datenbasis: Original-Daten
Darstellen als:
Statistik (Auto) Statistik J:M      Darstellung:
Zur Graphik,    zurück zur Übersicht aller Sensoren.
 
Tabellarische Datenbersicht: ?
 
Sensor: Nr:Datum:Temp:Feuchte:Taupunkt:
Aussen-T/F 1 17-03-2008 00:06:03 8.4 C 89 % 6.7 C
2 17-03-2008 00:18:03 8.4 C 89 % 6.7 C
3 17-03-2008 00:30:04 8.4 C 89 % 6.7 C
4 17-03-2008 00:42:04 8.4 C 90 % 6.86 C
5 17-03-2008 00:54:04 8.3 C 89 % 6.6 C
6 17-03-2008 01:06:04 8.2 C 89 % 6.5 C
7 17-03-2008 01:18:04 8 C 87 % 5.97 C
8 17-03-2008 01:30:04 7.7 C 83 % 5 C
9 17-03-2008 01:42:04 7.7 C 78 % 4.11 C
10 17-03-2008 01:54:04 7.4 C 79 % 4 C
11 17-03-2008 02:06:04 7.1 C 79 % 3.71 C
12 17-03-2008 02:18:04 7 C 78 % 3.43 C
13 17-03-2008 02:30:04 6.8 C 79 % 3.42 C
14 17-03-2008 02:42:04 6.4 C 79 % 3.03 C
15 17-03-2008 02:54:04 6.3 C 78 % 2.75 C
16 17-03-2008 03:06:04 6.1 C 78 % 2.56 C
17 17-03-2008 03:18:04 6 C 75 % 1.91 C
18 17-03-2008 03:30:04 5.8 C 77 % 2.09 C
19 17-03-2008 03:42:04 5.9 C 77 % 2.19 C
20 17-03-2008 03:54:04 5.8 C 75 % 1.72 C
21 17-03-2008 04:06:04 5.8 C 73 % 1.34 C
22 17-03-2008 04:18:04 5.8 C 72 % 1.15 C
23 17-03-2008 04:30:05 5.8 C 72 % 1.15 C
24 17-03-2008 04:42:05 5.8 C 70 % 0.76 C
25 17-03-2008 04:54:05 5.9 C 70 % 0.86 C
Sensor: Nr:Datum:Temp:Feuchte:Taupunkt:
Aussen-T/F 26 17-03-2008 05:06:05 5.8 C 70 % 0.76 C
27 17-03-2008 05:18:05 5.8 C 70 % 0.76 C
28 17-03-2008 05:30:05 5.8 C 70 % 0.76 C
29 17-03-2008 05:42:05 5.8 C 69 % 0.56 C
30 17-03-2008 05:54:05 5.8 C 69 % 0.56 C
31 17-03-2008 06:06:05 5.8 C 68 % 0.36 C
32 17-03-2008 06:18:05 5.7 C 69 % 0.47 C
33 17-03-2008 06:30:05 5.7 C 67 % 0.06 C
34 17-03-2008 06:42:05 5.7 C 67 % 0.06 C
35 17-03-2008 06:54:05 5.7 C 64 % -0.56 C
36 17-03-2008 07:06:05 5.7 C 65 % -0.35 C
37 17-03-2008 07:18:02 5.8 C 64 % -0.47 C
38 17-03-2008 07:30:02 5.8 C 64 % -0.47 C
39 17-03-2008 07:42:03 5.7 C 61 % -1.22 C
40 17-03-2008 07:54:03 5.7 C 61 % -1.22 C
41 17-03-2008 08:06:02 5.6 C 58 % -2 C
42 17-03-2008 08:18:02 5.6 C 58 % -2 C
43 17-03-2008 08:30:02 5.5 C 56 % -2.56 C
44 17-03-2008 08:42:02 5.7 C 53 % -3.12 C
45 17-03-2008 08:54:02 5.9 C 51 % -3.44 C
46 17-03-2008 09:06:02 6.1 C 48 % -4.07 C
47 17-03-2008 09:18:01 5.9 C 47 % -4.53 C
48 17-03-2008 09:30:01 5.9 C 50 % -3.71 C
49 17-03-2008 09:42:02 6 C 50 % -3.62 C
50 17-03-2008 09:54:02 6 C 50 % -3.62 C
Sensor: Nr:Datum:Temp:Feuchte:Taupunkt:
Aussen-T/F 51 17-03-2008 10:06:01 6.4 C 48 % -3.79 C
52 17-03-2008 10:18:02 6.6 C 49 % -3.33 C
53 17-03-2008 10:30:02 6.5 C 44 % -4.85 C
54 17-03-2008 10:42:02 6.4 C 45 % -4.65 C
55 17-03-2008 10:54:02 6.5 C 50 % -3.16 C
56 17-03-2008 11:06:02 6.4 C 52 % -2.72 C
57 17-03-2008 11:18:02 6.3 C 54 % -2.31 C
58 17-03-2008 11:30:02 6.8 C 47 % -3.71 C
59 17-03-2008 11:42:02 7.3 C 43 % -4.43 C
60 17-03-2008 11:54:02 7.3 C 43 % -4.43 C
61 17-03-2008 12:06:02 6.8 C 43 % -4.88 C
62 17-03-2008 12:18:03 5.8 C 46 % -4.91 C
63 17-03-2008 12:30:03 6.5 C 46 % -4.27 C
64 17-03-2008 12:42:02 7.1 C 42 % -4.92 C
65 17-03-2008 12:54:01 6.5 C 46 % -4.27 C
66 17-03-2008 13:06:01 6 C 47 % -4.44 C
67 17-03-2008 13:18:02 6.3 C 43 % -5.34 C
68 17-03-2008 13:30:02 7.1 C 40 % -5.56 C
69 17-03-2008 13:42:01 7.1 C 37 % -6.58 C
70 17-03-2008 13:54:02 6.5 C 36 % -7.47 C
71 17-03-2008 14:06:02 7.1 C 35 % -7.3 C
72 17-03-2008 14:18:02 7.7 C 33 % -7.53 C
73 17-03-2008 14:30:03 6.4 C 35 % -7.92 C
74 17-03-2008 14:42:02 6.9 C 35 % -7.48 C
75 17-03-2008 14:54:02 6.9 C 33 % -8.23 C
Sensor: Nr:Datum:Temp:Feuchte:Taupunkt:
Aussen-T/F 76 17-03-2008 15:06:02 6.8 C 33 % -8.32 C
77 17-03-2008 15:18:02 7 C 31 % -8.94 C
78 17-03-2008 15:30:02 6.8 C 33 % -8.32 C
79 17-03-2008 15:42:02 7 C 35 % -7.39 C
80 17-03-2008 15:54:01 7.4 C 35 % -7.03 C
81 17-03-2008 16:06:02 6.7 C 36 % -7.29 C
82 17-03-2008 16:18:02 6.6 C 37 % -7.03 C
83 17-03-2008 16:30:02 6.5 C 38 % -6.77 C
84 17-03-2008 16:42:01 6.5 C 39 % -6.43 C
85 17-03-2008 16:54:01 6.2 C 39 % -6.7 C
86 17-03-2008 17:06:02 6 C 40 % -6.55 C
87 17-03-2008 17:18:02 5.9 C 40 % -6.64 C
88 17-03-2008 17:30:02 5.9 C 40 % -6.64 C
89 17-03-2008 17:42:01 5.7 C 42 % -6.19 C
90 17-03-2008 17:54:01 5.5 C 45 % -5.47 C
91 17-03-2008 18:06:02 5.4 C 46 % -5.27 C
92 17-03-2008 18:18:01 5.3 C 46 % -5.36 C
93 17-03-2008 18:30:01 5.2 C 47 % -5.17 C
94 17-03-2008 18:42:02 5.1 C 48 % -4.99 C
95 17-03-2008 18:54:02 4.7 C 50 % -4.82 C
96 17-03-2008 19:06:01 4.7 C 50 % -4.82 C
97 17-03-2008 19:18:01 4.8 C 49 % -4.99 C
98 17-03-2008 19:30:01 4.8 C 47 % -5.54 C
99 17-03-2008 19:42:02 4.8 C 45 % -6.11 C
100 17-03-2008 19:54:02 4.7 C 46 % -5.91 C
Sensor: Nr:Datum:Temp:Feuchte:Taupunkt:
Aussen-T/F 101 17-03-2008 20:06:02 4.7 C 46 % -5.91 C
102 17-03-2008 20:18:02 4.7 C 46 % -5.91 C
103 17-03-2008 20:30:02 4.7 C 46 % -5.91 C
104 17-03-2008 20:42:02 4.6 C 46 % -6 C
105 17-03-2008 20:54:02 4.5 C 47 % -5.81 C
106 17-03-2008 21:06:01 4.1 C 48 % -5.9 C
107 17-03-2008 21:18:02 3.9 C 50 % -5.55 C
108 17-03-2008 21:30:02 3.9 C 51 % -5.29 C
109 17-03-2008 21:42:02 4.1 C 47 % -6.18 C
110 17-03-2008 21:54:02 4.2 C 48 % -5.81 C
111 17-03-2008 22:06:02 4.2 C 49 % -5.54 C
112 17-03-2008 22:19:04 4.2 C 49 % -5.54 C
113 17-03-2008 22:31:04 4.2 C 49 % -5.54 C
114 17-03-2008 22:43:04 4.2 C 48 % -5.81 C
115 17-03-2008 22:55:04 4.2 C 49 % -5.54 C
116 17-03-2008 23:07:04 4.1 C 50 % -5.37 C
117 17-03-2008 23:19:04 3.8 C 54 % -4.63 C
118 17-03-2008 23:31:04 3.6 C 55 % -4.58 C
119 17-03-2008 23:43:04 3.4 C 57 % -4.29 C
120 17-03-2008 23:55:04 3.3 C 58 % -4.16 C
121 18-03-2008 00:07:04 3.3 C 58 % -4.16 C
122 18-03-2008 00:19:04 3.4 C 58 % -4.06 C
123 18-03-2008 00:31:04 3.4 C 57 % -4.29 C
124 18-03-2008 00:43:04 3.5 C 57 % -4.2 C
125 18-03-2008 00:55:04 3.4 C 58 % -4.06 C
Sensor: Nr:Datum:Temp:Feuchte:Taupunkt:
Aussen-T/F 126 18-03-2008 01:07:04 3 C 61 % -3.77 C
127 18-03-2008 01:19:05 2.9 C 63 % -3.43 C
128 18-03-2008 01:31:05 2.8 C 63 % -3.53 C
129 18-03-2008 01:43:05 2.8 C 63 % -3.53 C
130 18-03-2008 01:55:05 2.7 C 63 % -3.62 C
131 18-03-2008 02:07:05 2.7 C 62 % -3.84 C
132 18-03-2008 02:19:05 2.7 C 61 % -4.05 C
133 18-03-2008 02:31:05 2.7 C 60 % -4.27 C
134 18-03-2008 02:43:05 2.4 C 60 % -4.55 C
135 18-03-2008 02:55:05 2.1 C 61 % -4.62 C
136 18-03-2008 03:07:05 2 C 60 % -4.93 C
137 18-03-2008 03:19:05 2.2 C 60 % -4.74 C
138 18-03-2008 03:31:05 2.2 C 60 % -4.74 C
139 18-03-2008 03:43:05 2 C 61 % -4.71 C
140 18-03-2008 03:55:05 1.7 C 64 % -4.36 C
141 18-03-2008 04:07:05 1.7 C 65 % -4.16 C
142 18-03-2008 04:19:05 1.5 C 64 % -4.55 C
143 18-03-2008 04:31:05 1.3 C 64 % -4.74 C
144 18-03-2008 04:43:05 0.9 C 66 % -4.72 C
145 18-03-2008 04:55:05 0.6 C 67 % -4.81 C
146 18-03-2008 05:07:06 0.8 C 71 % -3.85 C
147 18-03-2008 05:19:03 0.7 C 71 % -3.94 C
148 18-03-2008 05:31:03 0.7 C 71 % -3.94 C
149 18-03-2008 05:43:03 0.5 C 71 % -4.13 C
150 18-03-2008 05:55:02 0.5 C 73 % -3.76 C
Sensor: Nr:Datum:Temp:Feuchte:Taupunkt:
Aussen-T/F 151 18-03-2008 06:07:02 0.5 C 74 % -3.58 C
152 18-03-2008 06:19:02 0.2 C 75 % -3.69 C
153 18-03-2008 06:31:03 0.1 C 76 % -3.62 C
154 18-03-2008 06:43:03 0.4 C 78 % -2.98 C
155 18-03-2008 06:55:02 0.8 C 76 % -2.94 C
156 18-03-2008 07:07:02 0.9 C 75 % -3.02 C
157 18-03-2008 07:19:02 0.7 C 74 % -3.39 C
158 18-03-2008 07:31:02 0.7 C 74 % -3.39 C
159 18-03-2008 07:43:02 1.1 C 73 % -3.19 C
160 18-03-2008 07:55:02 1.7 C 72 % -2.79 C
161 18-03-2008 08:07:02 2 C 68 % -3.27 C
162 18-03-2008 08:19:01 2 C 66 % -3.67 C
163 18-03-2008 08:31:02 1.8 C 67 % -3.66 C
164 18-03-2008 08:43:02 1.8 C 67 % -3.66 C
165 18-03-2008 08:55:02 1.8 C 67 % -3.66 C
166 18-03-2008 09:07:02 2.2 C 65 % -3.68 C
167 18-03-2008 09:19:02 2.5 C 63 % -3.81 C
168 18-03-2008 09:31:02 3.1 C 59 % -4.12 C
169 18-03-2008 09:43:02 3.8 C 53 % -4.88 C
170 18-03-2008 09:55:02 4.2 C 49 % -5.54 C
171 18-03-2008 10:07:02 4.7 C 48 % -5.35 C
172 18-03-2008 10:19:01 4.9 C 45 % -6.02 C
173 18-03-2008 10:31:02 5.1 C 41 % -7.04 C
174 18-03-2008 10:43:02 5.2 C 40 % -7.27 C
175 18-03-2008 10:55:02 5 C 40 % -7.45 C
Sensor: Nr:Datum:Temp:Feuchte:Taupunkt:
Aussen-T/F 176 18-03-2008 11:07:01 4.7 C 40 % -7.72 C
177 18-03-2008 11:19:01 5.5 C 37 % -8.01 C
178 18-03-2008 11:31:02 5 C 33 % -9.91 C
179 18-03-2008 11:43:02 5.7 C 34 % -8.91 C
180 18-03-2008 11:55:02 5.9 C 30 % -10.32 C
181 18-03-2008 12:07:02 5.7 C 29 % -10.92 C
182 18-03-2008 12:19:01 5.9 C 27 % -11.63 C
183 18-03-2008 12:31:02 6.5 C 20 % -14.8 C
184 18-03-2008 12:43:02 6.5 C 20 % -14.8 C
185 18-03-2008 12:55:01 7.4 C 20 % -14.05 C
186 18-03-2008 13:07:01 7 C 20 % -14.39 C
187 18-03-2008 13:19:02 7.4 C 20 % -14.05 C
188 18-03-2008 13:31:01 7.6 C 20 % -13.89 C
189 18-03-2008 13:43:01 7.3 C 20 % -14.14 C
190 18-03-2008 13:55:02 7.3 C 20 % -14.14 C
191 18-03-2008 14:07:01 7.8 C 20 % -13.72 C
192 18-03-2008 14:19:02 6.9 C 25 % -11.73 C
193 18-03-2008 14:31:02 6.8 C 30 % -9.53 C
194 18-03-2008 14:43:02 7.5 C 28 % -9.8 C
195 18-03-2008 14:55:02 9.2 C 20 % -12.56 C
196 18-03-2008 15:07:02 7.7 C 25 % -11.05 C
197 18-03-2008 15:19:02 9 C 20 % -12.72 C
198 18-03-2008 15:31:02 7.9 C 25 % -10.88 C
199 18-03-2008 15:43:02 8.2 C 21 % -12.79 C
200 18-03-2008 15:55:01 8.7 C 20 % -12.97 C
Sensor: Nr:Datum:Temp:Feuchte:Taupunkt:
Aussen-T/F 201 18-03-2008 16:07:01 9.1 C 20 % -12.64 C
202 18-03-2008 16:19:02 9.2 C 20 % -12.56 C
203 18-03-2008 16:31:01 9.2 C 20 % -12.56 C
204 18-03-2008 16:43:01 8 C 20 % -13.56 C
205 18-03-2008 16:55:02 6.2 C 44 % -5.13 C
206 18-03-2008 17:07:01 7 C 37 % -6.67 C
207 18-03-2008 17:19:02 7.5 C 31 % -8.51 C
208 18-03-2008 17:31:02 7.8 C 28 % -9.54 C
209 18-03-2008 17:43:02 7.7 C 27 % -10.09 C
210 18-03-2008 17:55:03 7.7 C 28 % -9.63 C
211 18-03-2008 18:07:03 7.2 C 26 % -10.99 C
212 18-03-2008 18:19:02 6.8 C 27 % -10.86 C
213 18-03-2008 18:31:02 6.3 C 29 % -10.4 C
214 18-03-2008 18:43:02 5.9 C 31 % -9.91 C
215 18-03-2008 18:55:02 5.6 C 32 % -9.77 C
216 18-03-2008 19:07:03 5.3 C 35 % -8.9 C
217 18-03-2008 19:19:03 5 C 36 % -8.8 C
218 18-03-2008 19:31:02 4.8 C 39 % -7.96 C
219 18-03-2008 19:43:02 4.8 C 40 % -7.63 C
220 18-03-2008 19:55:02 4.6 C 40 % -7.81 C
221 18-03-2008 20:07:02 4.6 C 40 % -7.81 C
222 18-03-2008 20:19:01 4.5 C 40 % -7.9 C
223 18-03-2008 20:31:02 4.3 C 41 % -7.77 C
224 18-03-2008 20:43:02 4.2 C 41 % -7.86 C
225 18-03-2008 20:55:01 4.3 C 41 % -7.77 C
Sensor: Nr:Datum:Temp:Feuchte:Taupunkt:
Aussen-T/F 226 18-03-2008 21:07:02 4.2 C 41 % -7.86 C
227 18-03-2008 21:19:02 3.9 C 45 % -6.93 C
228 18-03-2008 21:31:01 3.4 C 50 % -6.02 C
229 18-03-2008 21:43:01 3.4 C 51 % -5.76 C
230 18-03-2008 21:55:01 3.5 C 51 % -5.66 C
231 18-03-2008 22:07:01 3.6 C 52 % -5.32 C
232 18-03-2008 22:19:01 3.6 C 53 % -5.07 C
233 18-03-2008 22:31:01 4 C 51 % -5.2 C
234 18-03-2008 22:43:01 4 C 51 % -5.2 C
235 18-03-2008 22:55:01 4.2 C 52 % -4.76 C
236 18-03-2008 23:07:01 4.2 C 55 % -4.02 C
237 18-03-2008 23:19:01 4.1 C 56 % -3.87 C
238 18-03-2008 23:31:01 4.1 C 57 % -3.64 C
239 18-03-2008 23:43:01 4.1 C 57 % -3.64 C
240 18-03-2008 23:55:02 4 C 59 % -3.27 C
241 19-03-2008 00:07:02 3.8 C 62 % -2.8 C
242 19-03-2008 00:19:02 3.7 C 65 % -2.25 C
243 19-03-2008 00:31:02 3.5 C 67 % -2.04 C
244 19-03-2008 00:43:02 3.4 C 67 % -2.13 C
245 19-03-2008 00:55:02 3.6 C 67 % -1.94 C
246 19-03-2008 01:07:02 3.6 C 66 % -2.14 C
247 19-03-2008 01:19:02 3.5 C 67 % -2.04 C
248 19-03-2008 01:31:02 3.3 C 65 % -2.64 C
249 19-03-2008 01:43:02 3.2 C 65 % -2.73 C
250 19-03-2008 01:55:02 3 C 66 % -2.72 C
Sensor: Nr:Datum:Temp:Feuchte:Taupunkt:
Aussen-T/F 251 19-03-2008 02:07:02 2.8 C 67 % -2.7 C
252 19-03-2008 02:19:02 2.7 C 67 % -2.8 C
253 19-03-2008 02:31:02 2.7 C 68 % -2.6 C
254 19-03-2008 02:43:02 2.9 C 69 % -2.21 C
255 19-03-2008 02:55:02 3.1 C 65 % -2.83 C
256 19-03-2008 03:07:02 3.1 C 63 % -3.24 C
257 19-03-2008 03:19:02 3.1 C 62 % -3.46 C
258 19-03-2008 03:31:02 2.9 C 64 % -3.22 C
259 19-03-2008 03:43:02 2.7 C 65 % -3.21 C
260 19-03-2008 03:55:03 2.5 C 65 % -3.4 C
261 19-03-2008 04:07:03 2.4 C 66 % -3.29 C
262 19-03-2008 04:19:03 2.3 C 67 % -3.18 C
263 19-03-2008 04:31:03 2.4 C 67 % -3.09 C
264 19-03-2008 04:43:03 2.6 C 66 % -3.1 C
265 19-03-2008 04:55:03 2.5 C 67 % -2.99 C
266 19-03-2008 05:07:03 2.4 C 68 % -2.89 C
267 19-03-2008 05:19:03 2.5 C 67 % -2.99 C
268 19-03-2008 05:31:03 2.4 C 66 % -3.29 C
269 19-03-2008 05:43:03 2.4 C 67 % -3.09 C
270 19-03-2008 05:55:03 2.3 C 67 % -3.18 C
271 19-03-2008 06:07:03 2.3 C 67 % -3.18 C
272 19-03-2008 06:19:01 2.1 C 68 % -3.17 C
273 19-03-2008 06:31:02 1.8 C 70 % -3.07 C
274 19-03-2008 06:43:02 2 C 70 % -2.88 C
275 19-03-2008 06:55:02 2 C 69 % -3.08 C
Sensor: Nr:Datum:Temp:Feuchte:Taupunkt:
Aussen-T/F 276 19-03-2008 07:07:01 2.2 C 69 % -2.88 C
277 19-03-2008 07:19:01 2.2 C 67 % -3.28 C
278 19-03-2008 07:31:02 2.2 C 68 % -3.08 C
279 19-03-2008 07:43:02 2.3 C 72 % -2.22 C
280 19-03-2008 07:55:02 2.2 C 74 % -1.94 C
281 19-03-2008 08:07:01 2.1 C 75 % -1.86 C
282 19-03-2008 08:19:01 2 C 77 % -1.6 C
283 19-03-2008 08:31:02 2.2 C 78 % -1.23 C
284 19-03-2008 08:43:02 2.2 C 79 % -1.05 C
285 19-03-2008 08:55:01 2.2 C 79 % -1.05 C
286 19-03-2008 09:07:01 2.5 C 78 % -0.94 C
287 19-03-2008 09:19:02 2.5 C 77 % -1.11 C
288 19-03-2008 09:31:01 2.6 C 76 % -1.19 C
289 19-03-2008 09:43:01 2.7 C 76 % -1.1 C
290 19-03-2008 09:55:01 2.9 C 73 % -1.45 C
291 19-03-2008 10:07:01 3.2 C 70 % -1.73 C
292 19-03-2008 10:19:02 3.4 C 66 % -2.33 C
293 19-03-2008 10:31:01 3.6 C 62 % -2.98 C
294 19-03-2008 10:43:01 4.4 C 55 % -3.83 C
295 19-03-2008 10:55:01 4.6 C 53 % -4.14 C
296 19-03-2008 11:07:02 4.6 C 55 % -3.65 C
297 19-03-2008 11:19:01 4.8 C 53 % -3.95 C
298 19-03-2008 11:31:01 5.1 C 49 % -4.71 C
299 19-03-2008 11:43:01 5.1 C 47 % -5.26 C
300 19-03-2008 11:55:01 6.2 C 45 % -4.83 C
Sensor: Nr:Datum:Temp:Feuchte:Taupunkt:
Aussen-T/F 301 19-03-2008 12:07:02 5.8 C 43 % -5.79 C
302 19-03-2008 12:19:01 6 C 45 % -5.01 C
303 19-03-2008 12:31:02 6.1 C 40 % -6.46 C
304 19-03-2008 12:43:02 4.1 C 57 % -3.64 C
305 19-03-2008 12:55:02 4.2 C 56 % -3.78 C
306 19-03-2008 13:07:01 4.6 C 55 % -3.65 C
307 19-03-2008 13:19:01 4.4 C 51 % -4.83 C
308 19-03-2008 13:31:02 5.4 C 47 % -4.99 C
309 19-03-2008 13:43:02 5.1 C 49 % -4.71 C
310 19-03-2008 13:55:02 4.8 C 52 % -4.2 C
311 19-03-2008 14:07:01 5.2 C 54 % -3.33 C
312 19-03-2008 14:19:02 6.1 C 49 % -3.79 C
313 19-03-2008 14:31:01 7.8 C 37 % -5.96 C
314 19-03-2008 14:43:02 3.8 C 60 % -3.23 C
315 19-03-2008 14:55:01 2.9 C 71 % -1.83 C
316 19-03-2008 15:07:01 3.6 C 74 % -0.59 C
317 19-03-2008 15:19:02 5.4 C 68 % -0.02 C
318 19-03-2008 15:31:01 4.6 C 62 % -2.04 C
319 19-03-2008 15:43:01 4.4 C 63 % -2.01 C
320 19-03-2008 15:55:01 6.5 C 50 % -3.16 C
321 19-03-2008 16:07:01 6.4 C 45 % -4.65 C
322 19-03-2008 16:19:02 6 C 47 % -4.44 C
323 19-03-2008 16:31:01 5.1 C 52 % -3.93 C
324 19-03-2008 16:43:01 4 C 63 % -2.39 C
325 19-03-2008 16:55:01 5.5 C 58 % -2.09 C
Sensor: Nr:Datum:Temp:Feuchte:Taupunkt:
Aussen-T/F 326 19-03-2008 17:07:02 4.5 C 59 % -2.8 C
327 19-03-2008 17:19:01 4.4 C 60 % -2.67 C
328 19-03-2008 17:31:01 4.6 C 57 % -3.17 C
329 19-03-2008 17:43:01 5.2 C 52 % -3.83 C
330 19-03-2008 17:55:01 5.6 C 51 % -3.72 C
331 19-03-2008 18:07:02 5.1 C 52 % -3.93 C
332 19-03-2008 18:19:01 4.6 C 55 % -3.65 C
333 19-03-2008 18:31:01 3.8 C 60 % -3.23 C
334 19-03-2008 18:43:01 3.4 C 64 % -2.75 C
335 19-03-2008 18:55:01 3.2 C 66 % -2.53 C
336 19-03-2008 19:07:02 3 C 67 % -2.51 C
337 19-03-2008 19:19:01 3.1 C 69 % -2.02 C
338 19-03-2008 19:31:01 3.3 C 69 % -1.83 C
339 19-03-2008 19:43:01 3.4 C 68 % -1.93 C
340 19-03-2008 19:55:01 3.3 C 68 % -2.03 C
341 19-03-2008 20:07:02 3 C 70 % -1.92 C
342 19-03-2008 20:19:01 2.8 C 71 % -1.92 C
343 19-03-2008 20:31:02 2.9 C 71 % -1.83 C
344 19-03-2008 20:43:02 2.6 C 69 % -2.5 C
345 19-03-2008 20:55:02 2.4 C 67 % -3.09 C
346 19-03-2008 21:07:01 2.4 C 67 % -3.09 C
347 19-03-2008 21:19:01 2.2 C 68 % -3.08 C
348 19-03-2008 21:31:02 1.9 C 70 % -2.98 C
349 19-03-2008 21:43:02 1.7 C 72 % -2.79 C
350 19-03-2008 21:55:02 1.6 C 72 % -2.89 C
Sensor: Nr:Datum:Temp:Feuchte:Taupunkt:
Aussen-T/F 351 19-03-2008 22:08:03 1.4 C 73 % -2.9 C
352 19-03-2008 22:20:03 1.3 C 74 % -2.81 C
353 19-03-2008 22:32:03 1.4 C 75 % -2.53 C
354 19-03-2008 22:44:03 1.5 C 73 % -2.8 C
355 19-03-2008 22:56:03 1.4 C 73 % -2.9 C
356 19-03-2008 23:08:03 1.5 C 73 % -2.8 C
357 19-03-2008 23:20:03 1.7 C 72 % -2.79 C
358 19-03-2008 23:32:03 1.7 C 71 % -2.98 C
359 19-03-2008 23:44:03 1.6 C 71 % -3.08 C
360 19-03-2008 23:56:03 1.7 C 72 % -2.79 C
361 20-03-2008 00:08:03 1.7 C 71 % -2.98 C
362 20-03-2008 00:20:03 1.7 C 71 % -2.98 C
363 20-03-2008 00:32:03 1.7 C 71 % -2.98 C
364 20-03-2008 00:44:03 2.1 C 69 % -2.98 C
365 20-03-2008 00:56:03 2.3 C 69 % -2.79 C
366 20-03-2008 01:08:03 2.4 C 67 % -3.09 C
367 20-03-2008 01:20:03 2.4 C 67 % -3.09 C
368 20-03-2008 01:32:03 2.5 C 67 % -2.99 C
369 20-03-2008 01:44:04 2.6 C 66 % -3.1 C
370 20-03-2008 01:56:04 2.6 C 66 % -3.1 C
371 20-03-2008 02:08:04 2.6 C 66 % -3.1 C
372 20-03-2008 02:20:04 2.6 C 68 % -2.7 C
373 20-03-2008 02:32:04 2.5 C 70 % -2.4 C
374 20-03-2008 02:44:04 2.6 C 67 % -2.9 C
375 20-03-2008 02:56:04 2.7 C 66 % -3 C
Sensor: Nr:Datum:Temp:Feuchte:Taupunkt:
Aussen-T/F 376 20-03-2008 03:08:04 2.5 C 68 % -2.79 C
377 20-03-2008 03:20:04 2.4 C 70 % -2.5 C
378 20-03-2008 03:32:04 2.2 C 71 % -2.5 C
379 20-03-2008 03:44:04 2.1 C 73 % -2.22 C
380 20-03-2008 03:56:04 2.1 C 74 % -2.04 C
381 20-03-2008 04:08:04 1.9 C 75 % -2.05 C
382 20-03-2008 04:20:04 1.8 C 74 % -2.33 C
383 20-03-2008 04:32:04 1.7 C 74 % -2.42 C
384 20-03-2008 04:44:04 1.6 C 74 % -2.52 C
385 20-03-2008 04:56:04 1.7 C 75 % -2.24 C
386 20-03-2008 05:08:04 1.9 C 73 % -2.41 C
387 20-03-2008 05:20:04 2.2 C 71 % -2.5 C
388 20-03-2008 05:32:04 2.3 C 69 % -2.79 C
389 20-03-2008 05:44:05 2.1 C 68 % -3.17 C
390 20-03-2008 05:56:05 2.2 C 69 % -2.88 C
391 20-03-2008 06:08:05 2.4 C 67 % -3.09 C
392 20-03-2008 06:20:05 2.4 C 66 % -3.29 C
393 20-03-2008 06:32:05 2.6 C 64 % -3.51 C
394 20-03-2008 06:44:05 2.5 C 64 % -3.6 C
395 20-03-2008 06:56:01 2.6 C 65 % -3.3 C
396 20-03-2008 07:08:02 2.5 C 65 % -3.4 C
397 20-03-2008 07:20:02 2.5 C 65 % -3.4 C
398 20-03-2008 07:32:01 2.5 C 65 % -3.4 C
399 20-03-2008 07:44:01 2.6 C 65 % -3.3 C
400 20-03-2008 07:56:01 2.8 C 65 % -3.11 C
Sensor: Nr:Datum:Temp:Feuchte:Taupunkt:
Aussen-T/F 401 20-03-2008 08:08:02 3 C 63 % -3.34 C
402 20-03-2008 08:20:01 3.1 C 63 % -3.24 C
403 20-03-2008 08:32:02 3.2 C 62 % -3.36 C
404 20-03-2008 08:44:02 3.5 C 61 % -3.3 C
405 20-03-2008 08:56:03 3.8 C 60 % -3.23 C
406 20-03-2008 09:08:03 3.7 C 59 % -3.55 C
407 20-03-2008 09:20:02 3.8 C 59 % -3.46 C
408 20-03-2008 09:32:02 4.1 C 60 % -2.95 C
409 20-03-2008 09:44:02 4.4 C 58 % -3.12 C
410 20-03-2008 09:56:02 4.8 C 56 % -3.22 C
411 20-03-2008 10:08:02 4.8 C 52 % -4.2 C
412 20-03-2008 10:20:02 5.2 C 51 % -4.09 C
413 20-03-2008 10:32:03 5.4 C 49 % -4.44 C
414 20-03-2008 10:44:03 5.9 C 46 % -4.81 C
415 20-03-2008 10:56:02 6.3 C 44 % -5.03 C
416 20-03-2008 11:08:02 6.7 C 41 % -5.6 C
417 20-03-2008 11:20:02 6 C 42 % -5.92 C
418 20-03-2008 11:32:02 6.1 C 44 % -5.22 C
419 20-03-2008 11:44:02 5.8 C 46 % -4.91 C
420 20-03-2008 11:56:02 6.2 C 44 % -5.13 C
421 20-03-2008 12:08:01 5.7 C 48 % -4.43 C
422 20-03-2008 12:20:02 4.9 C 60 % -2.2 C
423 20-03-2008 12:32:02 4.8 C 62 % -1.85 C
424 20-03-2008 12:44:02 4.7 C 67 % -0.89 C
425 20-03-2008 12:56:02 4.4 C 68 % -0.98 C
Sensor: Nr:Datum:Temp:Feuchte:Taupunkt:
Aussen-T/F 426 20-03-2008 13:08:02 4.4 C 68 % -0.98 C
427 20-03-2008 13:20:02 4.5 C 70 % -0.48 C
428 20-03-2008 13:32:02 4.7 C 70 % -0.29 C
429 20-03-2008 13:44:02 4.9 C 69 % -0.3 C
430 20-03-2008 13:56:02 5.3 C 67 % -0.32 C
431 20-03-2008 14:08:03 5.9 C 61 % -1.03 C
432 20-03-2008 14:20:02 6.4 C 53 % -2.47 C
433 20-03-2008 14:32:02 6.3 C 50 % -3.34 C
434 20-03-2008 14:44:02 4.7 C 62 % -1.94 C
435 20-03-2008 14:56:01 3.6 C 71 % -1.15 C
436 20-03-2008 15:08:02 4.2 C 74 % -0.01 C
437 20-03-2008 15:20:01 4.5 C 72 % -0.1 C
438 20-03-2008 15:32:01 4.9 C 72 % 0.29 C
439 20-03-2008 15:44:01 5 C 71 % 0.19 C
440 20-03-2008 15:56:01 5.5 C 70 % 0.48 C
441 20-03-2008 16:08:02 5.1 C 65 % -0.92 C
442 20-03-2008 16:20:01 5 C 68 % -0.4 C
443 20-03-2008 16:32:02 5 C 65 % -1.02 C
444 20-03-2008 16:44:02 5.2 C 61 % -1.69 C
445 20-03-2008 16:56:03 5.5 C 59 % -1.86 C
446 20-03-2008 17:08:02 5.8 C 52 % -3.28 C
447 20-03-2008 17:20:02 5.9 C 51 % -3.44 C
448 20-03-2008 17:32:02 5.9 C 50 % -3.71 C
449 20-03-2008 17:44:02 5.9 C 50 % -3.71 C
450 20-03-2008 17:56:02 5.9 C 48 % -4.25 C
Sensor: Nr:Datum:Temp:Feuchte:Taupunkt:
Aussen-T/F 451 20-03-2008 18:08:02 5.8 C 48 % -4.34 C
452 20-03-2008 18:20:02 5.4 C 53 % -3.39 C
453 20-03-2008 18:32:02 4.9 C 58 % -2.65 C
454 20-03-2008 18:44:02 4.7 C 60 % -2.39 C
455 20-03-2008 18:56:01 4.7 C 61 % -2.16 C
456 20-03-2008 19:08:02 4.7 C 60 % -2.39 C
457 20-03-2008 19:20:02 4.7 C 61 % -2.16 C
458 20-03-2008 19:32:01 4.7 C 61 % -2.16 C
459 20-03-2008 19:44:01 4.6 C 62 % -2.04 C
460 20-03-2008 19:56:02 4.6 C 63 % -1.82 C
461 20-03-2008 20:08:01 4.5 C 65 % -1.49 C
462 20-03-2008 20:20:02 4.2 C 67 % -1.37 C
463 20-03-2008 20:32:02 3.9 C 72 % -0.68 C
464 20-03-2008 20:44:02 3.8 C 74 % -0.4 C
465 20-03-2008 20:56:02 3.6 C 76 % -0.22 C
466 20-03-2008 21:08:02 3.5 C 77 % -0.14 C
467 20-03-2008 21:20:02 3.5 C 78 % 0.04 C
468 20-03-2008 21:32:02 3.6 C 77 % -0.05 C
469 20-03-2008 21:44:02 3.7 C 76 % -0.13 C
470 20-03-2008 21:56:01 3.9 C 74 % -0.3 C
471 20-03-2008 22:08:01 3.9 C 73 % -0.49 C
472 20-03-2008 22:20:01 4 C 71 % -0.77 C
473 20-03-2008 22:32:02 4 C 71 % -0.77 C
474 20-03-2008 22:44:03 3.9 C 73 % -0.49 C
475 20-03-2008 22:56:02 3.8 C 73 % -0.58 C
Sensor: Nr:Datum:Temp:Feuchte:Taupunkt:
Aussen-T/F 476 20-03-2008 23:08:02 3.8 C 73 % -0.58 C
477 20-03-2008 23:20:02 3.8 C 74 % -0.4 C
478 20-03-2008 23:32:02 3.8 C 74 % -0.4 C
479 20-03-2008 23:44:02 3.7 C 74 % -0.49 C
480 20-03-2008 23:56:02 3.8 C 74 % -0.4 C
481 21-03-2008 00:08:02 3.8 C 74 % -0.4 C
482 21-03-2008 00:20:03 3.7 C 75 % -0.31 C
483 21-03-2008 00:32:02 3.6 C 76 % -0.22 C
484 21-03-2008 00:44:03 3.5 C 76 % -0.32 C
485 21-03-2008 00:56:02 3.4 C 77 % -0.24 C
486 21-03-2008 01:08:02 3.3 C 78 % -0.16 C
487 21-03-2008 01:20:02 3.4 C 77 % -0.24 C
488 21-03-2008 01:32:02 3.3 C 77 % -0.34 C
489 21-03-2008 01:44:02 3.2 C 78 % -0.26 C
490 21-03-2008 01:56:02 3.3 C 78 % -0.16 C
491 21-03-2008 02:08:02 3.2 C 78 % -0.26 C
492 21-03-2008 02:20:02 3.2 C 79 % -0.08 C
493 21-03-2008 02:32:02 3.3 C 79 % 0.02 C
494 21-03-2008 02:44:02 3.4 C 78 % -0.06 C
495 21-03-2008 02:57:03 3.5 C 78 % 0.04 C
496 21-03-2008 03:09:03 3.6 C 77 % -0.05 C
497 21-03-2008 03:21:03 3.6 C 77 % -0.05 C
498 21-03-2008 03:33:01 3.6 C 77 % -0.05 C
499 21-03-2008 03:45:01 3.5 C 78 % 0.04 C
500 21-03-2008 03:57:01 3.4 C 78 % -0.06 C
Sensor: Nr:Datum:Temp:Feuchte:Taupunkt:
Aussen-T/F 501 21-03-2008 04:09:01 3.3 C 79 % 0.02 C
502 21-03-2008 04:21:02 3.2 C 79 % -0.08 C
503 21-03-2008 04:33:01 3.2 C 80 % 0.09 C
504 21-03-2008 04:45:02 3.2 C 79 % -0.08 C
505 21-03-2008 04:57:02 3.1 C 80 % -0.01 C
506 21-03-2008 05:09:02 3.3 C 80 % 0.19 C
507 21-03-2008 05:21:01 3.5 C 78 % 0.04 C
508 21-03-2008 05:33:02 3.8 C 76 % -0.03 C
509 21-03-2008 05:45:02 4 C 72 % -0.58 C
510 21-03-2008 05:57:02 4.1 C 72 % -0.48 C
511 21-03-2008 06:09:02 4.2 C 72 % -0.39 C
512 21-03-2008 06:21:02 4.4 C 70 % -0.58 C
513 21-03-2008 06:33:02 4.6 C 69 % -0.58 C
514 21-03-2008 06:45:02 4.6 C 68 % -0.78 C
515 21-03-2008 06:57:02 4.6 C 69 % -0.58 C
516 21-03-2008 07:09:03 4.8 C 69 % -0.39 C
517 21-03-2008 07:21:02 4.8 C 68 % -0.59 C
518 21-03-2008 07:33:02 5 C 66 % -0.81 C
519 21-03-2008 07:45:02 4.9 C 66 % -0.91 C
520 21-03-2008 07:57:02 4.9 C 65 % -1.11 C
521 21-03-2008 08:09:03 4.9 C 64 % -1.32 C
522 21-03-2008 08:21:02 5 C 65 % -1.02 C
523 21-03-2008 08:33:02 5.5 C 63 % -0.97 C
524 21-03-2008 08:45:02 5.5 C 62 % -1.19 C
525 21-03-2008 08:57:02 5.6 C 61 % -1.31 C
Sensor: Nr:Datum:Temp:Feuchte:Taupunkt:
Aussen-T/F 526 21-03-2008 09:09:02 5.5 C 61 % -1.41 C
527 21-03-2008 09:21:02 6.3 C 60 % -0.88 C
528 21-03-2008 09:33:02 6.2 C 58 % -1.43 C
529 21-03-2008 09:45:02 6.2 C 60 % -0.97 C
530 21-03-2008 09:57:02 5.6 C 65 % -0.45 C
531 21-03-2008 10:09:02 6.1 C 62 % -0.62 C
532 21-03-2008 10:21:02 6.1 C 61 % -0.84 C
533 21-03-2008 10:33:02 6.1 C 63 % -0.4 C
534 21-03-2008 10:45:02 5.8 C 66 % -0.05 C
535 21-03-2008 10:57:02 2.7 C 75 % -1.28 C
536 21-03-2008 11:09:02 3.3 C 79 % 0.02 C
537 21-03-2008 11:21:03 3.4 C 79 % 0.11 C
538 21-03-2008 11:33:02 3.8 C 77 % 0.15 C
539 21-03-2008 11:45:02 4.4 C 70 % -0.58 C
540 21-03-2008 11:57:03 4.3 C 67 % -1.27 C
541 21-03-2008 12:09:02 3.3 C 72 % -1.25 C
542 21-03-2008 12:21:02 2.6 C 76 % -1.19 C
543 21-03-2008 12:33:02 2.7 C 78 % -0.74 C
544 21-03-2008 12:45:01 3.2 C 76 % -0.61 C
545 21-03-2008 12:57:01 4.4 C 72 % -0.19 C
546 21-03-2008 13:09:02 4.6 C 63 % -1.82 C
547 21-03-2008 13:21:02 5.1 C 60 % -2.01 C
548 21-03-2008 13:33:02 5.2 C 51 % -4.09 C
549 21-03-2008 13:45:02 5.1 C 52 % -3.93 C
550 21-03-2008 13:57:02 5.5 C 47 % -4.9 C
Sensor: Nr:Datum:Temp:Feuchte:Taupunkt:
Aussen-T/F 551 21-03-2008 14:09:02 5.5 C 44 % -5.76 C
552 21-03-2008 14:21:02 4.3 C 58 % -3.22 C
553 21-03-2008 14:33:01 4.8 C 62 % -1.85 C
554 21-03-2008 14:45:02 5.7 C 56 % -2.38 C
555 21-03-2008 14:57:02 6.1 C 44 % -5.22 C
556 21-03-2008 15:09:02 5.7 C 41 % -6.5 C
557 21-03-2008 15:21:02 5.4 C 40 % -7.09 C
558 21-03-2008 15:33:02 5.9 C 41 % -6.32 C
559 21-03-2008 15:45:02 5.9 C 38 % -7.31 C
560 21-03-2008 15:57:03 5.6 C 39 % -7.24 C
561 21-03-2008 16:09:02 6 C 37 % -7.56 C
562 21-03-2008 16:21:03 5.8 C 36 % -8.09 C
563 21-03-2008 16:33:02 5.5 C 38 % -7.66 C
564 21-03-2008 16:45:02 6.5 C 36 % -7.47 C
565 21-03-2008 16:57:02 5.5 C 36 % -8.36 C
566 21-03-2008 17:09:02 5.5 C 36 % -8.36 C
567 21-03-2008 17:21:02 5.9 C 35 % -8.36 C
568 21-03-2008 17:33:02 5.6 C 36 % -8.27 C
569 21-03-2008 17:45:02 5.4 C 38 % -7.75 C
570 21-03-2008 17:57:02 5.3 C 38 % -7.84 C
571 21-03-2008 18:09:02 5.3 C 38 % -7.84 C
572 21-03-2008 18:21:02 5.3 C 39 % -7.51 C
573 21-03-2008 18:33:02 5.1 C 40 % -7.36 C
574 21-03-2008 18:45:02 4.8 C 43 % -6.7 C
575 21-03-2008 18:57:02 4.7 C 44 % -6.49 C
Sensor: Nr:Datum:Temp:Feuchte:Taupunkt:
Aussen-T/F 576 21-03-2008 19:09:02 4.4 C 50 % -5.09 C
577 21-03-2008 19:21:05 4.1 C 52 % -4.85 C
578 21-03-2008 19:33:02 4.1 C 55 % -4.11 C
579 21-03-2008 19:45:03 3.3 C 61 % -3.49 C
580 21-03-2008 19:57:03 2.2 C 75 % -1.76 C
581 21-03-2008 20:09:03 1.8 C 80 % -1.27 C
582 21-03-2008 20:21:02 1.7 C 83 % -0.87 C
583 21-03-2008 20:33:02 1.8 C 85 % -0.45 C
584 21-03-2008 20:45:01 1.7 C 86 % -0.38 C
585 21-03-2008 20:57:01 1.7 C 86 % -0.38 C
586 21-03-2008 21:09:01 1.7 C 87 % -0.23 C
587 21-03-2008 21:21:02 1.7 C 88 % -0.07 C
588 21-03-2008 21:33:01 1.6 C 88 % -0.17 C
589 21-03-2008 21:45:02 1.7 C 88 % -0.07 C
590 21-03-2008 21:57:02 2.1 C 85 % -0.15 C
591 21-03-2008 22:09:02 2.1 C 83 % -0.48 C
592 21-03-2008 22:21:02 2 C 81 % -0.91 C
593 21-03-2008 22:33:02 1.8 C 78 % -1.62 C
594 21-03-2008 22:45:02 1.3 C 80 % -1.76 C
595 21-03-2008 22:57:02 1.2 C 82 % -1.52 C
596 21-03-2008 23:09:02 1.1 C 82 % -1.62 C
597 21-03-2008 23:21:02 0.9 C 83 % -1.65 C
598 21-03-2008 23:33:03 0.8 C 84 % -1.59 C
599 21-03-2008 23:45:02 0.7 C 84 % -1.69 C
600 21-03-2008 23:57:02 0.8 C 85 % -1.43 C
Sensor: Nr:Datum:Temp:Feuchte:Taupunkt:
Aussen-T/F 601 22-03-2008 00:09:02 0.8 C 86 % -1.27 C
602 22-03-2008 00:21:02 0.9 C 86 % -1.17 C
603 22-03-2008 00:33:02 1 C 85 % -1.23 C
604 22-03-2008 00:45:02 1.1 C 85 % -1.13 C
605 22-03-2008 00:57:02 1.1 C 85 % -1.13 C
606 22-03-2008 01:09:01 1 C 85 % -1.23 C
607 22-03-2008 01:21:01 0.9 C 86 % -1.17 C
608 22-03-2008 01:33:02 0.7 C 86 % -1.37 C
609 22-03-2008 01:45:03 0.7 C 86 % -1.37 C
610 22-03-2008 01:57:03 0.6 C 86 % -1.46 C
611 22-03-2008 02:09:02 0.7 C 87 % -1.21 C
612 22-03-2008 02:21:02 0.6 C 87 % -1.31 C
613 22-03-2008 02:33:02 0.7 C 88 % -1.05 C
614 22-03-2008 02:46:03 0.8 C 88 % -0.96 C
615 22-03-2008 02:58:03 0.8 C 89 % -0.8 C
616 22-03-2008 03:10:03 0.9 C 89 % -0.7 C
617 22-03-2008 03:22:03 1 C 88 % -0.76 C
618 22-03-2008 03:34:02 1.1 C 88 % -0.66 C
619 22-03-2008 03:46:02 1.2 C 88 % -0.56 C
620 22-03-2008 03:58:02 1.3 C 88 % -0.46 C
621 22-03-2008 04:10:02 1.3 C 88 % -0.46 C
622 22-03-2008 04:22:01 1.3 C 87 % -0.62 C
623 22-03-2008 04:34:02 1.3 C 87 % -0.62 C
624 22-03-2008 04:46:02 1.2 C 88 % -0.56 C
625 22-03-2008 04:58:02 1.1 C 88 % -0.66 C
Sensor: Nr:Datum:Temp:Feuchte:Taupunkt:
Aussen-T/F 626 22-03-2008 05:10:02 1.1 C 88 % -0.66 C
627 22-03-2008 05:22:02 1.1 C 88 % -0.66 C
628 22-03-2008 05:34:02 1.2 C 89 % -0.41 C
629 22-03-2008 05:46:01 1.2 C 89 % -0.41 C
630 22-03-2008 05:58:01 1.3 C 89 % -0.31 C
631 22-03-2008 06:10:02 1.4 C 90 % -0.06 C
632 22-03-2008 06:22:01 1.4 C 90 % -0.06 C
633 22-03-2008 06:34:01 1.5 C 91 % 0.19 C
634 22-03-2008 06:46:01 1.5 C 91 % 0.19 C
635 22-03-2008 06:58:01 1.6 C 91 % 0.29 C
636 22-03-2008 07:10:01 1.7 C 91 % 0.39 C
637 22-03-2008 07:22:02 1.8 C 91 % 0.49 C
638 22-03-2008 07:34:01 1.9 C 90 % 0.44 C
639 22-03-2008 07:46:02 2.2 C 89 % 0.58 C
640 22-03-2008 07:58:03 2.2 C 89 % 0.58 C
641 22-03-2008 08:10:01 2.2 C 89 % 0.58 C
642 22-03-2008 08:22:01 2.2 C 88 % 0.42 C
643 22-03-2008 08:34:02 2.4 C 88 % 0.62 C
644 22-03-2008 08:46:02 2.7 C 88 % 0.92 C
645 22-03-2008 08:58:02 2.9 C 87 % 0.96 C
646 22-03-2008 09:10:02 3.1 C 85 % 0.83 C
647 22-03-2008 09:22:02 3.6 C 84 % 1.16 C
648 22-03-2008 09:34:01 3.7 C 82 % 0.92 C
649 22-03-2008 09:46:01 3.8 C 80 % 0.68 C
650 22-03-2008 09:58:01 3.7 C 79 % 0.4 C
Sensor: Nr:Datum:Temp:Feuchte:Taupunkt:
Aussen-T/F 651 22-03-2008 10:10:02 3.9 C 79 % 0.6 C
652 22-03-2008 10:22:02 3.7 C 79 % 0.4 C
653 22-03-2008 10:34:01 3.7 C 79 % 0.4 C
654 22-03-2008 10:46:02 4.2 C 78 % 0.71 C
655 22-03-2008 10:58:02 4.6 C 77 % 0.92 C
656 22-03-2008 11:10:02 5.4 C 74 % 1.15 C
657 22-03-2008 11:22:02 5.3 C 69 % 0.09 C
658 22-03-2008 11:34:02 3.8 C 75 % -0.21 C
659 22-03-2008 11:46:02 2.6 C 78 % -0.84 C
660 22-03-2008 11:58:02 2.4 C 83 % -0.18 C
661 22-03-2008 12:10:02 2.6 C 85 % 0.34 C
662 22-03-2008 12:22:02 3 C 86 % 0.89 C
663 22-03-2008 12:34:02 3.7 C 86 % 1.58 C
664 22-03-2008 12:46:02 4.1 C 85 % 1.81 C
665 22-03-2008 12:58:02 4.2 C 84 % 1.74 C
666 22-03-2008 13:10:02 4.3 C 83 % 1.67 C
667 22-03-2008 13:22:02 3.9 C 82 % 1.12 C
668 22-03-2008 13:34:02 3.8 C 83 % 1.19 C
669 22-03-2008 13:46:02 4 C 81 % 1.04 C
670 22-03-2008 13:58:02 3.9 C 82 % 1.12 C
671 22-03-2008 14:10:01 3.7 C 81 % 0.75 C
672 22-03-2008 14:22:01 3.6 C 82 % 0.82 C
673 22-03-2008 14:34:02 3.2 C 81 % 0.26 C
674 22-03-2008 14:46:02 3.1 C 82 % 0.33 C
675 22-03-2008 14:58:02 3.5 C 86 % 1.38 C
Sensor: Nr:Datum:Temp:Feuchte:Taupunkt:
Aussen-T/F 676 22-03-2008 15:10:02 4.2 C 86 % 2.07 C
677 22-03-2008 15:22:02 4.3 C 84 % 1.84 C
678 22-03-2008 15:34:01 5.2 C 81 % 2.21 C
679 22-03-2008 15:46:02 5.4 C 76 % 1.52 C
680 22-03-2008 15:58:02 7.2 C 71 % 2.3 C
681 22-03-2008 16:10:01 6.9 C 64 % 0.57 C
682 22-03-2008 16:22:02 7.2 C 63 % 0.64 C
683 22-03-2008 16:34:02 7.2 C 61 % 0.2 C
684 22-03-2008 16:46:02 7.5 C 59 % 0.02 C
685 22-03-2008 16:58:02 7.1 C 56 % -1.07 C
686 22-03-2008 17:10:02 6.9 C 57 % -1.01 C
687 22-03-2008 17:22:02 5.4 C 63 % -1.06 C
688 22-03-2008 17:34:02 3.6 C 72 % -0.96 C
689 22-03-2008 17:46:02 3.3 C 76 % -0.52 C
690 22-03-2008 17:58:02 3.6 C 79 % 0.31 C
691 22-03-2008 18:10:02 3.8 C 81 % 0.85 C
692 22-03-2008 18:22:01 3.7 C 82 % 0.92 C
693 22-03-2008 18:34:02 3.6 C 81 % 0.65 C
694 22-03-2008 18:46:01 3.8 C 79 % 0.5 C
695 22-03-2008 18:58:01 3.8 C 77 % 0.15 C
696 22-03-2008 19:10:02 3.7 C 72 % -0.87 C
697 22-03-2008 19:22:02 3.6 C 72 % -0.96 C
698 22-03-2008 19:34:02 3.5 C 72 % -1.06 C
699 22-03-2008 19:46:02 3.5 C 72 % -1.06 C
700 22-03-2008 19:58:02 3.5 C 71 % -1.25 C
Sensor: Nr:Datum:Temp:Feuchte:Taupunkt:
Aussen-T/F 701 22-03-2008 20:10:02 3.4 C 72 % -1.16 C
702 22-03-2008 20:22:01 3.3 C 71 % -1.44 C
703 22-03-2008 20:34:02 3.2 C 71 % -1.54 C
704 22-03-2008 20:46:02 3.1 C 71 % -1.63 C
705 22-03-2008 20:58:02 2.8 C 72 % -1.73 C
706 22-03-2008 21:10:02 2.6 C 73 % -1.74 C
707 22-03-2008 21:22:01 2.6 C 73 % -1.74 C
708 22-03-2008 21:34:02 2.6 C 71 % -2.12 C
709 22-03-2008 21:46:02 2.5 C 72 % -2.02 C
710 22-03-2008 21:58:02 2.4 C 69 % -2.69 C
711 22-03-2008 22:10:02 2.2 C 69 % -2.88 C
712 22-03-2008 22:22:02 1.9 C 72 % -2.6 C
713 22-03-2008 22:34:02 1.8 C 74 % -2.33 C
714 22-03-2008 22:46:02 1.9 C 76 % -1.87 C
715 22-03-2008 22:58:02 1.8 C 73 % -2.51 C
716 22-03-2008 23:10:02 1.7 C 71 % -2.98 C
717 22-03-2008 23:22:02 1.7 C 70 % -3.17 C
718 22-03-2008 23:34:01 1.6 C 71 % -3.08 C
719 22-03-2008 23:46:02 1.6 C 69 % -3.46 C
720 22-03-2008 23:58:02 1.6 C 67 % -3.85 C
721 23-03-2008 00:10:02 1.4 C 65 % -4.44 C
722 23-03-2008 00:22:02 1.2 C 66 % -4.43 C
723 23-03-2008 00:34:02 1 C 69 % -4.03 C
724 23-03-2008 00:46:02 1.1 C 67 % -4.33 C
725 23-03-2008 00:58:03 1 C 66 % -4.62 C
Sensor: Nr:Datum:Temp:Feuchte:Taupunkt:
Aussen-T/F 726 23-03-2008 01:10:01 1.1 C 67 % -4.33 C
727 23-03-2008 01:22:02 1 C 66 % -4.62 C
728 23-03-2008 01:34:02 1 C 68 % -4.23 C
729 23-03-2008 01:46:02 0.9 C 68 % -4.32 C
730 23-03-2008 01:58:02 0.9 C 66 % -4.72 C
731 23-03-2008 02:10:02 0.8 C 65 % -5.01 C
732 23-03-2008 02:22:02 0.7 C 64 % -5.31 C
733 23-03-2008 02:34:02 0.6 C 64 % -5.41 C
734 23-03-2008 02:46:01 0.5 C 66 % -5.1 C
735 23-03-2008 02:58:01 0.4 C 66 % -5.19 C
736 23-03-2008 03:10:01 0.4 C 66 % -5.19 C
737 23-03-2008 03:22:01 0.2 C 66 % -5.38 C
738 23-03-2008 03:34:02 -0.1 C 65 % -5.88 C
739 23-03-2008 03:46:02 -0.1 C 67 % -5.48 C
740 23-03-2008 03:58:02 -0.3 C 65 % -6.07 C
741 23-03-2008 04:10:02 -0.4 C 65 % -6.16 C
742 23-03-2008 04:22:01 -0.5 C 63 % -6.67 C
743 23-03-2008 04:34:02 -0.4 C 61 % -6.99 C
744 23-03-2008 04:46:01 -0.5 C 60 % -7.3 C
745 23-03-2008 04:58:01 -0.6 C 61 % -7.18 C
746 23-03-2008 05:10:01 -0.7 C 61 % -7.27 C
747 23-03-2008 05:22:02 -0.7 C 61 % -7.27 C
748 23-03-2008 05:34:01 -0.7 C 61 % -7.27 C
749 23-03-2008 05:46:01 -0.6 C 62 % -6.97 C
750 23-03-2008 05:58:01 -0.6 C 63 % -6.76 C
Sensor: Nr:Datum:Temp:Feuchte:Taupunkt:
Aussen-T/F 751 23-03-2008 06:10:02 -0.5 C 63 % -6.67 C
752 23-03-2008 06:22:02 -0.6 C 61 % -7.18 C
753 23-03-2008 06:34:01 -0.7 C 60 % -7.49 C
754 23-03-2008 06:46:01 -0.7 C 59 % -7.7 C
755 23-03-2008 06:58:01 -0.7 C 58 % -7.92 C
756 23-03-2008 07:10:02 -0.8 C 56 % -8.47 C
757 23-03-2008 07:22:02 -0.9 C 56 % -8.56 C
758 23-03-2008 07:34:01 -0.9 C 55 % -8.79 C
759 23-03-2008 07:46:01 -1 C 53 % -9.36 C
760 23-03-2008 07:58:01 -0.9 C 52 % -9.51 C
761 23-03-2008 08:10:02 -0.7 C 52 % -9.32 C
762 23-03-2008 08:22:02 -0.7 C 52 % -9.32 C
763 23-03-2008 08:34:01 -0.8 C 52 % -9.41 C
764 23-03-2008 08:46:01 -0.6 C 51 % -9.47 C
765 23-03-2008 08:58:01 -0.6 C 50 % -9.73 C
766 23-03-2008 09:10:01 -0.7 C 47 % -10.6 C
767 23-03-2008 09:22:01 -0.4 C 46 % -10.59 C
768 23-03-2008 09:34:02 -0.4 C 46 % -10.59 C
769 23-03-2008 09:46:02 -0.4 C 46 % -10.59 C
770 23-03-2008 09:58:02 0 C 45 % -10.49 C
771 23-03-2008 10:10:01 0.5 C 43 % -10.6 C
772 23-03-2008 10:22:01 0.3 C 40 % -11.69 C
773 23-03-2008 10:34:01 0.8 C 39 % -11.55 C
774 23-03-2008 10:46:01 1 C 37 % -12.02 C
775 23-03-2008 10:58:01 1.7 C 35 % -12.09 C
Sensor: Nr:Datum:Temp:Feuchte:Taupunkt:
Aussen-T/F 776 23-03-2008 11:10:02 1.4 C 25 % -16.43 C
777 23-03-2008 11:22:01 1.3 C 25 % -16.52 C
778 23-03-2008 11:34:01 1.5 C 25 % -16.35 C
779 23-03-2008 11:46:01 2.1 C 25 % -15.84 C
780 23-03-2008 11:58:01 2.2 C 23 % -16.74 C
781 23-03-2008 12:10:01 2 C 21 % -17.99 C
782 23-03-2008 12:22:02 1.7 C 25 % -16.18 C
783 23-03-2008 12:34:01 2.6 C 27 % -14.48 C
784 23-03-2008 12:46:01 2.4 C 20 % -18.22 C
785 23-03-2008 12:58:01 3.4 C 23 % -15.73 C
786 23-03-2008 13:10:01 2.8 C 20 % -17.89 C
787 23-03-2008 13:22:01 3.2 C 20 % -17.56 C
788 23-03-2008 13:34:01 3.7 C 20 % -17.14 C
789 23-03-2008 13:46:01 4.3 C 20 % -16.64 C
790 23-03-2008 13:58:01 4.5 C 20 % -16.47 C
791 23-03-2008 14:10:02 5.8 C 20 % -15.39 C
792 23-03-2008 14:22:01 5.8 C 20 % -15.39 C
793 23-03-2008 14:34:01 5.8 C 20 % -15.39 C
794 23-03-2008 14:46:01 6.6 C 20 % -14.72 C
795 23-03-2008 14:58:01 6.3 C 20 % -14.97 C
796 23-03-2008 15:10:02 6.1 C 20 % -15.14 C
797 23-03-2008 15:22:02 6.4 C 20 % -14.89 C
798 23-03-2008 15:34:01 5.5 C 20 % -15.64 C
799 23-03-2008 15:46:01 5.6 C 20 % -15.55 C
800 23-03-2008 15:58:01 7.6 C 20 % -13.89 C
Sensor: Nr:Datum:Temp:Feuchte:Taupunkt:
Aussen-T/F 801 23-03-2008 16:10:01 7.5 C 20 % -13.97 C
802 23-03-2008 16:22:02 7.4 C 20 % -14.05 C
803 23-03-2008 16:34:01 8 C 20 % -13.56 C
804 23-03-2008 16:46:01 8.1 C 20 % -13.47 C
805 23-03-2008 16:58:01 8.4 C 20 % -13.22 C
806 23-03-2008 17:10:01 7.5 C 20 % -13.97 C
807 23-03-2008 17:22:02 7 C 20 % -14.39 C
808 23-03-2008 17:34:01 6.8 C 20 % -14.55 C
809 23-03-2008 17:46:02 5.8 C 20 % -15.39 C
810 23-03-2008 17:58:02 5.4 C 20 % -15.72 C
811 23-03-2008 18:10:01 5.6 C 20 % -15.55 C
812 23-03-2008 18:22:01 5.4 C 20 % -15.72 C
813 23-03-2008 18:34:02 4.3 C 20 % -16.64 C
814 23-03-2008 18:46:01 3.4 C 20 % -17.39 C
815 23-03-2008 18:58:01 2.4 C 21 % -17.65 C
816 23-03-2008 19:10:02 1.7 C 26 % -15.71 C
817 23-03-2008 19:22:01 1.5 C 30 % -14.16 C
818 23-03-2008 19:34:01 1.2 C 36 % -12.19 C
819 23-03-2008 19:46:01 1 C 40 % -11.05 C
820 23-03-2008 19:58:01 0.8 C 39 % -11.55 C
821 23-03-2008 20:10:02 0.7 C 38 % -11.96 C
822 23-03-2008 20:22:01 0.5 C 40 % -11.51 C
823 23-03-2008 20:34:01 0.3 C 43 % -10.78 C
824 23-03-2008 20:46:01 0.1 C 41 % -11.56 C
825 23-03-2008 20:58:01 -0.1 C 42 % -11.46 C
Sensor: Nr:Datum:Temp:Feuchte:Taupunkt:
Aussen-T/F 826 23-03-2008 21:10:02 -0.3 C 44 % -11.06 C
827 23-03-2008 21:22:01 -0.4 C 45 % -10.87 C
828 23-03-2008 21:34:01 -0.7 C 45 % -11.14 C
829 23-03-2008 21:46:01 -0.9 C 46 % -11.05 C
830 23-03-2008 21:58:01 -0.9 C 47 % -10.78 C
831 23-03-2008 22:12:05 -0.7 C 46 % -10.87 C
832 23-03-2008 22:24:05 -0.7 C 46 % -10.87 C
833 23-03-2008 22:36:05 -0.9 C 47 % -10.78 C
834 23-03-2008 22:48:05 -1.1 C 49 % -10.44 C
835 23-03-2008 23:00:05 -1.2 C 51 % -10.03 C
836 23-03-2008 23:12:05 -1.4 C 53 % -9.73 C
837 23-03-2008 23:24:05 -1.5 C 54 % -9.59 C
838 23-03-2008 23:36:05 -1.7 C 55 % -9.54 C
839 23-03-2008 23:48:05 -1.8 C 55 % -9.63 C

Legende:
   Min
   Max


Maximal/Minimal-Werte vom 17.03.2008 - 23.03.2008

Sensor Min Max Avg
Temp
(Aussen-T/F)
-1.8 °C
23-03-2008  23:48:05
9.2 °C
18-03-2008  14:55:02
3.7 °C
Feuchte
(Aussen-T/F)
20 %
18-03-2008  12:31:02
91 %
22-03-2008  06:34:01
60.1 %
Taupunkt
(Aussen-T/F)
-18.22 C
23-03-2008  12:46:01
6.86 C
17-03-2008  00:42:04
-4.05 C

Die Daten stammen von einer Davis Vantage Pro 2 Wetter-Station und werden unter Linux mit der Software wview2wettercgi und aufbereitet. Alle Angaben erfolgen ohne Gewähr für ihre Vollständigkeit oder Richtigkeit.
Kontakt: Rainer Krienke krienke@uni-koblenz.de . Meine Webseiten an der Uni Koblenz oder privat.
Version: $Revision: 0.78 $